NKS470 KLAX-KIAH
Flight info
| Callsign | NKS470 |
|---|---|
| Flight time | N/A |
| Altitude | 33000 |
| Route | DOTSS2 CNERY BLH SPTFR Q4 FUSCO DIESL TTORO3 |
| Aircraft | A21N/M-SDE2E3FGHIJ1RWXY/LB1 |
Departure
| Time | 2026-04-22 01:39 |
|---|---|
| Airport | Los Angeles International Airport (KLAX) |
Arrival
| Time | N/A |
|---|---|
| Airport | George Bush Intercontinental Airport (KIAH) |
| Time | Latitude | Longitude | Altitude | Speed | Heading |
|---|---|---|---|---|---|
| 2026-04-22 00:59 | 33.94119 | -118.41408 | 100 ft | 0 kts | 291° |
| 2026-04-22 01:21 | 33.94112 | -118.41386 | 101 ft | 4 kts | 291° |
| 2026-04-22 01:22 | 33.94103 | -118.41360 | 100 ft | 3 kts | 291° |
| 2026-04-22 01:22 | 33.94098 | -118.41330 | 99 ft | 4 kts | 262° |
| 2026-04-22 01:22 | 33.94108 | -118.41306 | 100 ft | 4 kts | 211° |
| 2026-04-22 01:22 | 33.94131 | -118.41300 | 100 ft | 5 kts | 173° |
| 2026-04-22 01:23 | 33.94149 | -118.41303 | 100 ft | 0 kts | 173° |
| 2026-04-22 01:26 | 33.94148 | -118.41303 | 100 ft | 1 kts | 173° |
| 2026-04-22 01:26 | 33.94126 | -118.41300 | 100 ft | 5 kts | 173° |
| 2026-04-22 01:27 | 33.94099 | -118.41296 | 101 ft | 2 kts | 172° |
| 2026-04-22 01:27 | 33.94089 | -118.41294 | 102 ft | 2 kts | 172° |
| 2026-04-22 01:27 | 33.94075 | -118.41292 | 102 ft | 0 kts | 172° |
| 2026-04-22 01:28 | 33.94063 | -118.41290 | 100 ft | 3 kts | 172° |
| 2026-04-22 01:28 | 33.94037 | -118.41285 | 100 ft | 4 kts | 172° |
| 2026-04-22 01:28 | 33.94014 | -118.41281 | 102 ft | 0 kts | 172° |
| 2026-04-22 01:30 | 33.94012 | -118.41281 | 102 ft | 1 kts | 172° |
| 2026-04-22 01:30 | 33.93984 | -118.41276 | 102 ft | 7 kts | 173° |
| 2026-04-22 01:30 | 33.93924 | -118.41268 | 101 ft | 10 kts | 173° |
| 2026-04-22 01:31 | 33.93848 | -118.41257 | 102 ft | 12 kts | 173° |
| 2026-04-22 01:31 | 33.93767 | -118.41220 | 107 ft | 14 kts | 117° |
| 2026-04-22 01:31 | 33.93766 | -118.41096 | 107 ft | 15 kts | 81° |
| 2026-04-22 01:31 | 33.93781 | -118.40964 | 107 ft | 16 kts | 83° |
| 2026-04-22 01:32 | 33.93795 | -118.40823 | 107 ft | 17 kts | 83° |
| 2026-04-22 01:32 | 33.93809 | -118.40674 | 108 ft | 18 kts | 83° |
| 2026-04-22 01:32 | 33.93824 | -118.40520 | 108 ft | 19 kts | 82° |
| 2026-04-22 01:32 | 33.93842 | -118.40356 | 109 ft | 20 kts | 83° |
| 2026-04-22 01:33 | 33.93859 | -118.40185 | 110 ft | 21 kts | 83° |
| 2026-04-22 01:33 | 33.93877 | -118.40008 | 110 ft | 22 kts | 82° |
| 2026-04-22 01:33 | 33.93897 | -118.39825 | 109 ft | 22 kts | 83° |
| 2026-04-22 01:33 | 33.93915 | -118.39636 | 108 ft | 23 kts | 83° |
| 2026-04-22 01:34 | 33.93936 | -118.39442 | 107 ft | 24 kts | 83° |
| 2026-04-22 01:34 | 33.93956 | -118.39241 | 106 ft | 25 kts | 83° |
| 2026-04-22 01:34 | 33.93976 | -118.39048 | 107 ft | 19 kts | 83° |
| 2026-04-22 01:34 | 33.93992 | -118.38883 | 107 ft | 20 kts | 83° |
| 2026-04-22 01:35 | 33.94009 | -118.38716 | 108 ft | 17 kts | 83° |
| 2026-04-22 01:35 | 33.94024 | -118.38572 | 108 ft | 18 kts | 83° |
| 2026-04-22 01:35 | 33.94039 | -118.38420 | 109 ft | 19 kts | 83° |
| 2026-04-22 01:35 | 33.94053 | -118.38285 | 109 ft | 11 kts | 82° |
| 2026-04-22 01:36 | 33.94063 | -118.38189 | 109 ft | 12 kts | 83° |
| 2026-04-22 01:36 | 33.94071 | -118.38110 | 108 ft | 8 kts | 83° |
| 2026-04-22 01:36 | 33.94077 | -118.38055 | 108 ft | 5 kts | 87° |
| 2026-04-22 01:36 | 33.94073 | -118.38030 | 109 ft | 0 kts | 110° |
| 2026-04-22 01:37 | 33.94071 | -118.38026 | 109 ft | 3 kts | 114° |
| 2026-04-22 01:37 | 33.94041 | -118.37999 | 112 ft | 8 kts | 163° |
| 2026-04-22 01:37 | 33.93987 | -118.38035 | 115 ft | 10 kts | 250° |
| 2026-04-22 01:38 | 33.93984 | -118.38048 | 115 ft | 0 kts | 259° |
| 2026-04-22 01:38 | 33.93978 | -118.38087 | 115 ft | 23 kts | 260° |
| 2026-04-22 01:39 | 33.93928 | -118.38583 | 115 ft | 96 kts | 263° |
| 2026-04-22 01:39 | 33.93816 | -118.39656 | 115 ft | 159 kts | 263° |
| 2026-04-22 01:39 | 33.93662 | -118.41046 | 661 ft | 169 kts | 260° |
| 2026-04-22 01:39 | 33.93469 | -118.42464 | 1457 ft | 173 kts | 260° |
| 2026-04-22 01:40 | 33.93246 | -118.43939 | 2003 ft | 187 kts | 262° |
| 2026-04-22 01:40 | 33.93075 | -118.45562 | 2533 ft | 202 kts | 262° |
| 2026-04-22 01:40 | 33.92641 | -118.47266 | 2945 ft | 226 kts | 244° |
| 2026-04-22 01:40 | 33.91671 | -118.48876 | 3443 ft | 247 kts | 229° |
| 2026-04-22 01:41 | 33.90482 | -118.50405 | 4181 ft | 251 kts | 228° |
| 2026-04-22 01:41 | 33.89268 | -118.51949 | 4712 ft | 254 kts | 229° |
| 2026-04-22 01:41 | 33.88082 | -118.53520 | 4937 ft | 254 kts | 230° |
| 2026-04-22 01:41 | 33.86837 | -118.54998 | 4991 ft | 256 kts | 219° |
| 2026-04-22 01:42 | 33.85220 | -118.55904 | 5245 ft | 262 kts | 195° |
| 2026-04-22 01:42 | 33.83367 | -118.55936 | 6029 ft | 271 kts | 173° |
| 2026-04-22 01:42 | 33.81513 | -118.55436 | 6881 ft | 273 kts | 169° |
| 2026-04-22 01:42 | 33.79653 | -118.54879 | 7530 ft | 276 kts | 170° |
| 2026-04-22 01:43 | 33.77802 | -118.54342 | 7842 ft | 277 kts | 171° |
| 2026-04-22 01:43 | 33.75921 | -118.53812 | 7965 ft | 277 kts | 171° |
| 2026-04-22 01:43 | 33.74038 | -118.53291 | 7999 ft | 277 kts | 172° |
| 2026-04-22 01:43 | 33.72161 | -118.52742 | 7999 ft | 279 kts | 167° |
| 2026-04-22 01:44 | 33.70402 | -118.51697 | 7994 ft | 286 kts | 147° |
| 2026-04-22 01:44 | 33.69048 | -118.49907 | 7990 ft | 295 kts | 123° |
| 2026-04-22 01:44 | 33.68245 | -118.47622 | 8369 ft | 300 kts | 112° |
| 2026-04-22 01:44 | 33.67584 | -118.45227 | 9118 ft | 304 kts | 112° |
| 2026-04-22 01:45 | 33.66908 | -118.42799 | 9856 ft | 308 kts | 113° |
| 2026-04-22 01:45 | 33.66209 | -118.40356 | 10389 ft | 319 kts | 114° |
| 2026-04-22 01:45 | 33.65453 | -118.37772 | 10707 ft | 337 kts | 114° |
| 2026-04-22 01:45 | 33.64689 | -118.35040 | 11054 ft | 353 kts | 110° |
| 2026-04-22 01:46 | 33.64306 | -118.32076 | 11590 ft | 366 kts | 94° |
| 2026-04-22 01:46 | 33.64326 | -118.29000 | 12246 ft | 372 kts | 91° |
| 2026-04-22 01:46 | 33.64387 | -118.25879 | 12901 ft | 377 kts | 91° |
| 2026-04-22 01:46 | 33.64425 | -118.22711 | 13552 ft | 382 kts | 92° |
| 2026-04-22 01:47 | 33.64443 | -118.19500 | 14159 ft | 387 kts | 92° |
| 2026-04-22 01:47 | 33.64451 | -118.16252 | 14742 ft | 392 kts | 92° |
| 2026-04-22 01:47 | 33.64454 | -118.12956 | 15317 ft | 396 kts | 92° |
| 2026-04-22 01:47 | 33.64451 | -118.09639 | 15920 ft | 400 kts | 93° |
| 2026-04-22 01:48 | 33.64442 | -118.06325 | 16508 ft | 404 kts | 93° |
| 2026-04-22 01:48 | 33.64435 | -118.02930 | 17125 ft | 408 kts | 92° |
| 2026-04-22 01:48 | 33.64429 | -117.99508 | 17703 ft | 413 kts | 92° |
| 2026-04-22 01:48 | 33.64426 | -117.96033 | 18276 ft | 417 kts | 92° |
| 2026-04-22 01:49 | 33.64424 | -117.92534 | 18793 ft | 421 kts | 92° |
| 2026-04-22 01:49 | 33.64420 | -117.89007 | 19289 ft | 425 kts | 92° |
| 2026-04-22 01:49 | 33.64408 | -117.85436 | 19784 ft | 429 kts | 92° |
| 2026-04-22 01:49 | 33.64395 | -117.81831 | 20288 ft | 432 kts | 94° |
| 2026-04-22 01:50 | 33.64079 | -117.78246 | 20766 ft | 431 kts | 107° |
| 2026-04-22 01:50 | 33.63301 | -117.74774 | 21248 ft | 432 kts | 111° |
| 2026-04-22 01:50 | 33.62433 | -117.71347 | 21707 ft | 435 kts | 112° |
| 2026-04-22 01:50 | 33.61545 | -117.67856 | 22199 ft | 439 kts | 111° |
| 2026-04-22 01:51 | 33.60659 | -117.64328 | 22676 ft | 442 kts | 111° |
| 2026-04-22 01:51 | 33.59775 | -117.60767 | 23148 ft | 446 kts | 111° |
| 2026-04-22 01:51 | 33.58891 | -117.57191 | 23620 ft | 449 kts | 111° |
| 2026-04-22 01:51 | 33.57995 | -117.53563 | 24024 ft | 452 kts | 111° |
| 2026-04-22 01:52 | 33.57109 | -117.49980 | 24411 ft | 455 kts | 111° |
| 2026-04-22 01:52 | 33.56204 | -117.46330 | 24798 ft | 458 kts | 111° |
| 2026-04-22 01:52 | 33.55291 | -117.42654 | 25183 ft | 460 kts | 112° |
| 2026-04-22 01:52 | 33.54371 | -117.38959 | 25535 ft | 463 kts | 112° |
| 2026-04-22 01:53 | 33.53446 | -117.35245 | 25882 ft | 466 kts | 112° |
| 2026-04-22 01:53 | 33.52512 | -117.31508 | 26229 ft | 468 kts | 112° |
| 2026-04-22 01:53 | 33.51586 | -117.27810 | 26574 ft | 471 kts | 112° |
| 2026-04-22 01:53 | 33.50743 | -117.24000 | 26906 ft | 478 kts | 105° |
| 2026-04-22 01:54 | 33.50375 | -117.20013 | 27228 ft | 486 kts | 96° |
| 2026-04-22 01:54 | 33.50304 | -117.15930 | 27560 ft | 489 kts | 94° |
| 2026-04-22 01:54 | 33.50284 | -117.11880 | 27893 ft | 492 kts | 94° |
| 2026-04-22 01:54 | 33.50256 | -117.07773 | 28227 ft | 494 kts | 94° |
| 2026-04-22 01:55 | 33.50208 | -117.03631 | 28548 ft | 496 kts | 95° |
| 2026-04-22 01:55 | 33.50152 | -116.99489 | 28870 ft | 498 kts | 95° |
| 2026-04-22 01:55 | 33.50090 | -116.95321 | 29196 ft | 500 kts | 95° |
| 2026-04-22 01:55 | 33.50029 | -116.91152 | 29518 ft | 502 kts | 95° |
| 2026-04-22 01:56 | 33.49963 | -116.86962 | 29821 ft | 503 kts | 95° |
| 2026-04-22 01:56 | 33.49895 | -116.82771 | 30119 ft | 504 kts | 95° |
| 2026-04-22 01:56 | 33.49828 | -116.78550 | 30386 ft | 506 kts | 95° |
| 2026-04-22 01:56 | 33.49760 | -116.74379 | 30650 ft | 506 kts | 95° |
| 2026-04-22 01:57 | 33.49694 | -116.70164 | 30914 ft | 507 kts | 95° |
| 2026-04-22 01:57 | 33.49623 | -116.65943 | 31169 ft | 508 kts | 95° |
| 2026-04-22 01:57 | 33.49552 | -116.61703 | 31457 ft | 507 kts | 95° |
| 2026-04-22 01:57 | 33.49476 | -116.57471 | 31748 ft | 507 kts | 95° |
| 2026-04-22 01:58 | 33.49400 | -116.53252 | 32008 ft | 506 kts | 95° |
| 2026-04-22 01:58 | 33.49323 | -116.49024 | 32274 ft | 506 kts | 95° |
| 2026-04-22 01:58 | 33.49244 | -116.44800 | 32554 ft | 506 kts | 95° |
| 2026-04-22 01:58 | 33.49168 | -116.40645 | 32813 ft | 506 kts | 95° |
| 2026-04-22 01:59 | 33.49103 | -116.36405 | 33015 ft | 505 kts | 95° |
| 2026-04-22 01:59 | 33.49045 | -116.32203 | 33023 ft | 504 kts | 95° |
| 2026-04-22 01:59 | 33.48917 | -116.23759 | 33009 ft | 511 kts | 95° |
| 2026-04-22 02:00 | 33.48780 | -116.15132 | 32987 ft | 523 kts | 95° |
| 2026-04-22 02:00 | 33.48667 | -116.06370 | 32974 ft | 535 kts | 92° |
| 2026-04-22 02:01 | 33.49117 | -116.01909 | 32958 ft | 543 kts | 78° |
| 2026-04-22 02:01 | 33.50230 | -115.97563 | 32969 ft | 546 kts | 71° |
| 2026-04-22 02:01 | 33.52806 | -115.89000 | 32961 ft | 545 kts | 71° |
| 2026-04-22 02:02 | 33.55336 | -115.80436 | 32941 ft | 544 kts | 71° |
| 2026-04-22 02:02 | 33.57822 | -115.71896 | 32932 ft | 542 kts | 71° |
| 2026-04-22 02:03 | 33.60279 | -115.63401 | 32931 ft | 541 kts | 72° |
| 2026-04-22 02:03 | 33.62674 | -115.54845 | 32919 ft | 539 kts | 77° |
| 2026-04-22 02:04 | 33.63012 | -115.46085 | 32917 ft | 527 kts | 103° |
| 2026-04-22 02:04 | 33.62213 | -115.41765 | 32930 ft | 521 kts | 109° |
| 2026-04-22 02:05 | 33.61221 | -115.34578 | 32916 ft | 527 kts | 99° |
| 2026-04-22 02:05 | 33.60934 | -115.25761 | 32921 ft | 529 kts | 95° |
| 2026-04-22 02:06 | 33.60733 | -115.16940 | 32920 ft | 529 kts | 96° |
| 2026-04-22 02:06 | 33.60497 | -115.08088 | 32916 ft | 530 kts | 96° |
| 2026-04-22 02:07 | 33.60251 | -114.99220 | 32915 ft | 532 kts | 96° |
| 2026-04-22 02:07 | 33.60000 | -114.90399 | 32914 ft | 532 kts | 96° |
| 2026-04-22 02:08 | 33.59744 | -114.81523 | 32920 ft | 531 kts | 96° |
| 2026-04-22 02:08 | 33.58988 | -114.72803 | 32915 ft | 523 kts | 108° |
| 2026-04-22 02:09 | 33.57377 | -114.64305 | 32917 ft | 522 kts | 108° |
| 2026-04-22 02:09 | 33.55760 | -114.55802 | 32910 ft | 522 kts | 108° |
| 2026-04-22 02:10 | 33.54150 | -114.47307 | 32907 ft | 522 kts | 108° |
| 2026-04-22 02:10 | 33.52541 | -114.38853 | 32903 ft | 522 kts | 108° |
| 2026-04-22 02:11 | 33.50909 | -114.30381 | 32890 ft | 522 kts | 108° |
| 2026-04-22 02:11 | 33.49285 | -114.21926 | 32900 ft | 522 kts | 107° |
| 2026-04-22 02:12 | 33.47669 | -114.13449 | 32896 ft | 521 kts | 107° |
| 2026-04-22 02:12 | 33.46031 | -114.04974 | 32899 ft | 521 kts | 107° |
| 2026-04-22 02:13 | 33.44397 | -113.96556 | 32910 ft | 520 kts | 108° |
| 2026-04-22 02:13 | 33.42748 | -113.88120 | 32973 ft | 519 kts | 107° |
| 2026-04-22 02:14 | 33.41101 | -113.79694 | 33030 ft | 519 kts | 107° |
| 2026-04-22 02:14 | 33.39376 | -113.71380 | 33064 ft | 515 kts | 112° |
| 2026-04-22 02:15 | 33.37146 | -113.63230 | 33065 ft | 514 kts | 112° |
| 2026-04-22 02:15 | 33.34899 | -113.55100 | 33033 ft | 514 kts | 112° |
| 2026-04-22 02:16 | 33.32652 | -113.46973 | 32987 ft | 514 kts | 112° |
| 2026-04-22 02:16 | 33.30415 | -113.38901 | 32925 ft | 514 kts | 112° |
| 2026-04-22 02:17 | 33.28153 | -113.30763 | 32873 ft | 514 kts | 112° |
| 2026-04-22 02:17 | 33.25892 | -113.22658 | 32869 ft | 514 kts | 112° |
| 2026-04-22 02:18 | 33.23623 | -113.14552 | 32869 ft | 513 kts | 112° |
| 2026-04-22 02:18 | 33.21370 | -113.06521 | 32873 ft | 512 kts | 112° |
| 2026-04-22 02:19 | 33.19102 | -112.98458 | 32876 ft | 512 kts | 112° |
| 2026-04-22 02:19 | 33.16826 | -112.90393 | 32883 ft | 511 kts | 112° |
| 2026-04-22 02:20 | 33.14569 | -112.82397 | 32888 ft | 511 kts | 112° |
| 2026-04-22 02:20 | 33.12291 | -112.74372 | 32895 ft | 511 kts | 112° |
| 2026-04-22 02:21 | 33.09998 | -112.66310 | 32903 ft | 510 kts | 112° |
| 2026-04-22 02:21 | 33.07725 | -112.58339 | 32905 ft | 510 kts | 112° |
| 2026-04-22 02:22 | 33.05433 | -112.50318 | 32902 ft | 510 kts | 112° |
| 2026-04-22 02:22 | 33.03230 | -112.42266 | 32898 ft | 510 kts | 111° |
| 2026-04-22 02:23 | 33.01034 | -112.34222 | 32900 ft | 510 kts | 111° |
| 2026-04-22 02:23 | 32.98840 | -112.26233 | 32903 ft | 510 kts | 111° |
| 2026-04-22 02:24 | 32.96613 | -112.18178 | 32907 ft | 510 kts | 111° |
| 2026-04-22 02:24 | 32.94399 | -112.10184 | 32912 ft | 510 kts | 111° |
| 2026-04-22 02:25 | 32.92165 | -112.02159 | 32927 ft | 510 kts | 111° |
| 2026-04-22 02:25 | 32.89932 | -111.94143 | 32937 ft | 510 kts | 111° |
| 2026-04-22 02:26 | 32.87701 | -111.86182 | 32946 ft | 510 kts | 111° |
| 2026-04-22 02:26 | 32.85457 | -111.78157 | 32951 ft | 510 kts | 111° |
| 2026-04-22 02:27 | 32.83223 | -111.70193 | 32943 ft | 510 kts | 111° |
| 2026-04-22 02:27 | 32.80977 | -111.62195 | 32934 ft | 510 kts | 111° |
| 2026-04-22 02:28 | 32.78720 | -111.54189 | 32917 ft | 510 kts | 111° |
| 2026-04-22 02:28 | 32.76461 | -111.46215 | 32915 ft | 511 kts | 111° |
| 2026-04-22 02:29 | 32.74189 | -111.38208 | 32935 ft | 511 kts | 111° |
| 2026-04-22 02:29 | 32.71925 | -111.30249 | 32939 ft | 511 kts | 111° |
| 2026-04-22 02:30 | 32.69650 | -111.22248 | 32942 ft | 511 kts | 111° |
| 2026-04-22 02:30 | 32.67360 | -111.14252 | 32939 ft | 511 kts | 111° |
| 2026-04-22 02:31 | 32.65069 | -111.06262 | 32924 ft | 511 kts | 111° |
| 2026-04-22 02:31 | 32.62767 | -110.98281 | 32914 ft | 511 kts | 111° |
| 2026-04-22 02:32 | 32.60483 | -110.90347 | 32907 ft | 511 kts | 111° |
| 2026-04-22 02:32 | 32.58176 | -110.82370 | 32898 ft | 511 kts | 111° |
| 2026-04-22 02:33 | 32.55857 | -110.74376 | 32902 ft | 511 kts | 111° |
| 2026-04-22 02:33 | 32.53555 | -110.66450 | 32905 ft | 511 kts | 111° |
| 2026-04-22 02:34 | 32.51231 | -110.58472 | 32907 ft | 511 kts | 111° |
| 2026-04-22 02:34 | 32.48898 | -110.50516 | 32909 ft | 511 kts | 111° |
| 2026-04-22 02:35 | 32.46566 | -110.42556 | 32913 ft | 511 kts | 111° |
| 2026-04-22 02:35 | 32.44239 | -110.34641 | 32908 ft | 511 kts | 111° |
| 2026-04-22 02:36 | 32.41892 | -110.26681 | 32913 ft | 511 kts | 111° |
| 2026-04-22 02:36 | 32.39544 | -110.18739 | 32920 ft | 510 kts | 111° |
| 2026-04-22 02:37 | 32.37196 | -110.10854 | 32915 ft | 510 kts | 111° |
| 2026-04-22 02:37 | 32.34831 | -110.02931 | 32915 ft | 510 kts | 111° |
| 2026-04-22 02:38 | 32.32470 | -109.94991 | 32913 ft | 510 kts | 111° |
| 2026-04-22 02:38 | 32.30120 | -109.87122 | 32912 ft | 511 kts | 110° |
| 2026-04-22 02:39 | 32.28643 | -109.78900 | 32914 ft | 513 kts | 98° |
| 2026-04-22 02:39 | 32.27678 | -109.70585 | 32909 ft | 512 kts | 98° |
| 2026-04-22 02:40 | 32.26683 | -109.62256 | 32902 ft | 512 kts | 98° |
| 2026-04-22 02:40 | 32.25666 | -109.53929 | 32899 ft | 512 kts | 98° |
| 2026-04-22 02:41 | 32.24645 | -109.45586 | 32901 ft | 512 kts | 98° |
| 2026-04-22 02:41 | 32.23624 | -109.37301 | 32900 ft | 512 kts | 98° |
| 2026-04-22 02:42 | 32.22590 | -109.28961 | 32896 ft | 512 kts | 98° |
| 2026-04-22 02:42 | 32.21554 | -109.20659 | 32901 ft | 512 kts | 98° |
| 2026-04-22 02:43 | 32.20527 | -109.12310 | 32899 ft | 513 kts | 98° |
| 2026-04-22 02:43 | 32.19492 | -109.04017 | 32919 ft | 513 kts | 98° |
| 2026-04-22 02:44 | 32.18440 | -108.95691 | 32964 ft | 513 kts | 98° |
| 2026-04-22 02:44 | 32.17378 | -108.87367 | 32998 ft | 512 kts | 98° |
| 2026-04-22 02:45 | 32.16314 | -108.79023 | 33029 ft | 513 kts | 98° |
| 2026-04-22 02:45 | 32.15253 | -108.70757 | 33033 ft | 512 kts | 98° |
| 2026-04-22 02:46 | 32.14170 | -108.62422 | 33023 ft | 513 kts | 98° |
| 2026-04-22 02:46 | 32.13077 | -108.54094 | 32996 ft | 513 kts | 97° |
| 2026-04-22 02:47 | 32.11998 | -108.45832 | 32964 ft | 513 kts | 97° |
| 2026-04-22 02:47 | 32.10898 | -108.37484 | 32919 ft | 513 kts | 97° |
| 2026-04-22 02:48 | 32.09819 | -108.29204 | 32915 ft | 513 kts | 97° |
| 2026-04-22 02:48 | 32.08723 | -108.20870 | 32917 ft | 513 kts | 97° |
| 2026-04-22 02:49 | 32.07615 | -108.12548 | 32913 ft | 513 kts | 97° |
| 2026-04-22 02:49 | 32.06503 | -108.04224 | 32924 ft | 513 kts | 97° |
| 2026-04-22 02:50 | 32.05396 | -107.95973 | 32955 ft | 513 kts | 97° |
| 2026-04-22 02:50 | 32.04265 | -107.87671 | 32983 ft | 512 kts | 97° |
| 2026-04-22 02:51 | 32.03133 | -107.79364 | 32992 ft | 512 kts | 97° |
| 2026-04-22 02:51 | 32.02006 | -107.71122 | 32987 ft | 512 kts | 97° |
| 2026-04-22 02:52 | 32.01056 | -107.64221 | 32976 ft | 512 kts | 97° |
| 2026-04-22 02:52 | 31.99913 | -107.55928 | 32949 ft | 512 kts | 97° |
| 2026-04-22 02:53 | 31.98771 | -107.47681 | 32912 ft | 512 kts | 97° |
| 2026-04-22 02:53 | 31.97618 | -107.39388 | 32897 ft | 512 kts | 97° |
| 2026-04-22 02:54 | 31.96456 | -107.31088 | 32890 ft | 512 kts | 97° |
| 2026-04-22 02:54 | 31.95299 | -107.22839 | 32890 ft | 512 kts | 97° |
| 2026-04-22 02:55 | 31.94125 | -107.14564 | 32890 ft | 511 kts | 97° |
| 2026-04-22 02:55 | 31.92959 | -107.06351 | 32922 ft | 511 kts | 97° |
| 2026-04-22 02:56 | 31.91785 | -106.98099 | 32965 ft | 510 kts | 97° |
| 2026-04-22 02:56 | 31.90603 | -106.89862 | 33024 ft | 509 kts | 97° |
| 2026-04-22 02:57 | 31.89415 | -106.81622 | 33074 ft | 509 kts | 98° |
| 2026-04-22 02:57 | 31.88233 | -106.73462 | 33084 ft | 508 kts | 98° |
| 2026-04-22 02:58 | 31.87071 | -106.65473 | 33081 ft | 508 kts | 98° |